createdAt,value
2019-04-10T00:03:32.243Z,46
2019-04-10T00:08:26.597Z,54
2019-04-10T00:13:29.107Z,50
2019-04-10T00:18:31.848Z,46
2019-04-10T00:23:33.985Z,48
2019-04-10T00:28:36.792Z,47
2019-04-10T00:33:38.942Z,53
2019-04-10T00:38:42.074Z,52
2019-04-10T00:43:43.841Z,52
2019-04-10T00:48:46.625Z,48
2019-04-10T00:53:49.640Z,46
2019-04-10T00:58:51.259Z,46
2019-04-10T01:03:53.947Z,47
2019-04-10T01:08:57.170Z,49
2019-04-10T01:13:59.098Z,61
2019-04-10T01:19:01.714Z,46
2019-04-10T01:24:03.681Z,52
2019-04-10T01:29:06.097Z,52
2019-04-10T01:34:09.422Z,47
2019-04-10T01:39:11.273Z,58
2019-04-10T01:44:13.376Z,59
2019-04-10T01:49:15.909Z,55
2019-04-10T01:54:19.281Z,56
2019-04-10T01:59:21.482Z,52
2019-04-10T02:04:23.207Z,54
2019-04-10T02:09:25.716Z,52
2019-04-10T02:14:28.435Z,62
2019-04-10T02:19:30.508Z,65
2019-04-10T02:24:33.361Z,62
2019-04-10T02:29:35.716Z,57
2019-04-10T02:34:39.270Z,56
2019-04-10T02:39:46.161Z,56
2019-04-10T02:44:43.977Z,60
2019-04-10T02:49:46.853Z,64
2019-04-10T02:54:48.990Z,63
2019-04-10T02:59:51.125Z,56
2019-04-10T03:04:53.256Z,56
2019-04-10T03:10:05.607Z,58
2019-04-10T03:14:59.103Z,52
2019-04-10T03:20:00.198Z,56
2019-04-10T03:25:02.627Z,57
2019-04-10T03:30:05.746Z,55
2019-04-10T03:35:08.154Z,67
2019-04-10T03:40:11.119Z,57
2019-04-10T03:45:12.271Z,61
2019-04-10T03:50:14.729Z,53
2019-04-10T03:55:17.189Z,57
2019-04-10T04:00:20.931Z,53
2019-04-10T04:05:22.442Z,58
2019-04-10T04:10:24.885Z,62
2019-04-10T04:15:27.908Z,59
2019-04-10T04:20:29.493Z,57
2019-04-10T04:25:32.466Z,52
2019-04-10T04:30:34.499Z,51
2019-04-10T04:35:36.937Z,51
2019-04-10T04:40:39.348Z,58
2019-04-10T04:45:42.189Z,58
2019-04-10T04:50:44.287Z,54
2019-04-10T04:55:47.010Z,54
2019-04-10T05:00:50.671Z,60
2019-04-10T05:05:51.968Z,56
2019-04-10T05:10:54.321Z,56
2019-04-10T05:15:57.521Z,62
2019-04-10T05:20:59.062Z,57
2019-04-10T05:26:02.433Z,54
2019-04-10T05:31:03.999Z,47
2019-04-10T05:36:06.980Z,60
2019-04-10T05:41:09.189Z,56
2019-04-10T05:46:12.351Z,49
2019-04-10T05:51:14.988Z,60
2019-04-10T05:56:16.361Z,54
2019-04-10T06:01:29.845Z,61
2019-04-10T06:06:22.191Z,58
2019-04-10T06:11:24.650Z,61
2019-04-10T06:16:26.219Z,51
2019-04-10T06:21:29.792Z,60
2019-04-10T06:26:32.469Z,62
2019-04-10T06:31:33.599Z,62
2019-04-10T06:36:36.069Z,62
2019-04-10T06:41:39.071Z,68
2019-04-10T06:46:41.785Z,62
2019-04-10T06:51:43.445Z,55
2019-04-10T06:56:48.181Z,58
2019-04-10T07:01:52.759Z,56
2019-04-10T07:06:58.521Z,54
2019-04-10T07:11:58.208Z,58
2019-04-10T07:17:00.504Z,54
2019-04-10T07:21:59.996Z,56
2019-04-10T07:27:03.342Z,49
2019-04-10T07:32:07.651Z,56
2019-04-10T07:37:05.800Z,55
2019-04-10T07:42:08.334Z,49
2019-04-10T07:47:11.099Z,50
2019-04-10T07:52:12.905Z,47
2019-04-10T07:57:16.029Z,42
2019-04-10T08:02:18.733Z,45
2019-04-10T08:07:29.349Z,38
2019-04-10T08:12:23.323Z,49
2019-04-10T08:17:25.241Z,41
2019-04-10T08:22:28.664Z,37
2019-04-10T08:27:30.130Z,42
2019-04-10T08:32:40.372Z,35
2019-04-10T08:37:35.140Z,35
2019-04-10T08:42:37.841Z,32
2019-04-10T08:47:40.005Z,29
2019-04-10T08:52:42.710Z,25
2019-04-10T08:57:45.865Z,26
2019-04-10T09:02:48.501Z,29
2019-04-10T09:07:50.638Z,26
2019-04-10T09:12:54.483Z,25
2019-04-10T09:17:55.673Z,24
2019-04-10T09:23:15.334Z,27
2019-04-10T09:28:00.154Z,26
2019-04-10T09:33:14.571Z,24
2019-04-10T09:38:04.556Z,24
2019-04-10T09:43:07.352Z,27
2019-04-10T09:48:10.604Z,22
2019-04-10T09:53:12.794Z,22
2019-04-10T09:58:14.347Z,20
2019-04-10T10:03:17.339Z,20
2019-04-10T10:13:23.523Z,21
2019-04-10T10:18:24.219Z,22
2019-04-10T10:23:27.593Z,21
2019-04-10T10:28:29.235Z,24
2019-04-10T10:38:34.847Z,21
2019-04-10T10:43:36.605Z,19
2019-04-10T10:48:39.904Z,19
2019-04-10T10:53:41.410Z,19
2019-04-10T10:58:43.968Z,18
2019-04-10T11:03:46.738Z,20
2019-04-10T11:08:48.777Z,17
2019-04-10T11:13:51.280Z,16
2019-04-10T11:18:55.027Z,17
2019-04-10T11:23:56.160Z,18
2019-04-10T11:28:58.604Z,17
2019-04-10T11:34:02.763Z,15
2019-04-10T11:39:11.784Z,16
2019-04-10T11:44:08.074Z,17
2019-04-10T11:54:14.277Z,18
2019-04-10T11:59:14.419Z,17
2019-04-10T12:04:17.198Z,16
2019-04-10T12:09:55.142Z,17
2019-04-10T12:14:21.550Z,16
2019-04-10T12:19:25.006Z,15
2019-04-10T12:24:26.063Z,15
2019-04-10T12:29:28.936Z,15
2019-04-10T12:34:30.571Z,15
2019-04-10T12:39:33.204Z,15
2019-04-10T12:44:35.959Z,16
2019-04-10T12:49:37.961Z,15
2019-04-10T12:54:40.581Z,15
2019-04-10T12:59:43.632Z,19
2019-04-10T13:04:45.323Z,14
2019-04-10T13:09:48.487Z,15
2019-04-10T13:24:55.369Z,13
2019-04-10T13:29:57.614Z,14
2019-04-10T13:35:00.095Z,17
2019-04-10T13:40:03.496Z,18
2019-04-10T13:45:05.161Z,14
2019-04-10T13:50:08.552Z,17
2019-04-10T13:55:10.290Z,12
2019-04-10T14:00:13.364Z,15
2019-04-10T14:05:15.623Z,15
2019-04-10T14:10:17.284Z,15
2019-04-10T14:15:20.187Z,13
2019-04-10T14:20:23.529Z,13
2019-04-10T14:25:25.500Z,16
2019-04-10T14:30:27.198Z,14
2019-04-10T14:35:29.575Z,14
2019-04-10T14:40:32.491Z,16
2019-04-10T14:45:35.409Z,15
2019-04-10T14:55:39.777Z,19
2019-04-10T15:00:41.919Z,18
2019-04-10T15:05:49.758Z,15
2019-04-10T15:10:46.796Z,15
2019-04-10T15:15:50.281Z,16
2019-04-10T15:20:51.749Z,13
2019-04-10T15:25:54.203Z,15
2019-04-10T15:30:57.182Z,16
2019-04-10T15:41:01.573Z,15
2019-04-10T15:46:04.267Z,28
2019-04-10T15:51:07.647Z,20
2019-04-10T16:01:11.819Z,16
2019-04-10T16:06:13.961Z,14
2019-04-10T16:11:17.378Z,19
2019-04-10T16:16:19.078Z,12
2019-04-10T16:21:21.417Z,13
2019-04-10T16:26:23.835Z,18
2019-04-10T16:31:26.137Z,12
2019-04-10T16:36:29.663Z,15
2019-04-10T16:41:31.196Z,12
2019-04-10T16:46:33.471Z,10
2019-04-10T16:51:36.550Z,11
2019-04-10T16:56:38.727Z,11
2019-04-10T17:01:41.007Z,11
2019-04-10T17:11:45.813Z,12
2019-04-10T17:16:48.239Z,12
2019-04-10T17:21:50.681Z,10
2019-04-10T17:26:53.156Z,13
2019-04-10T17:31:55.600Z,14
2019-04-10T17:36:59.170Z,12
2019-04-10T17:47:04.598Z,16
2019-04-10T17:52:06.248Z,16
2019-04-10T17:57:08.633Z,16
2019-04-10T18:02:11.577Z,16
2019-04-10T18:07:12.909Z,22
2019-04-10T18:12:16.203Z,16
2019-04-10T18:17:18.553Z,23
2019-04-10T18:22:20.619Z,16
2019-04-10T18:32:25.474Z,29
2019-04-10T18:37:28.499Z,41
2019-04-10T18:42:30.852Z,42
2019-04-10T18:47:34.922Z,32
2019-04-10T18:52:35.112Z,22
2019-04-10T18:57:37.475Z,21
2019-04-10T19:02:41.077Z,20
2019-04-10T19:12:45.324Z,27
2019-04-10T19:17:47.378Z,25
2019-04-10T19:22:50.642Z,26
2019-04-10T19:27:52.692Z,23
2019-04-10T19:32:54.656Z,21
2019-04-10T19:37:57.092Z,17
2019-04-10T19:42:59.938Z,21
2019-04-10T19:48:03.153Z,20
2019-04-10T19:53:04.773Z,18
2019-04-10T19:58:07.997Z,17
2019-04-10T20:03:09.426Z,20
2019-04-10T20:08:13.013Z,21
2019-04-10T20:13:14.516Z,21
2019-04-10T20:18:16.959Z,20
2019-04-10T20:23:19.478Z,16
2019-04-10T20:28:22.752Z,20
2019-04-10T20:33:24.962Z,24
2019-04-10T20:38:27.321Z,29
2019-04-10T20:43:30.603Z,23
2019-04-10T20:53:34.066Z,22
2019-04-10T20:58:36.601Z,24
2019-04-10T21:03:40.187Z,21
2019-04-10T21:08:42.437Z,24
2019-04-10T21:13:44.626Z,24
2019-04-10T21:18:46.345Z,20
2019-04-10T21:23:49.020Z,27
2019-04-10T21:28:51.610Z,20
2019-04-10T21:33:54.695Z,21
2019-04-10T21:38:56.666Z,19
2019-04-10T21:43:58.634Z,23
2019-04-10T21:49:01.561Z,20
2019-04-10T21:54:04.331Z,24
2019-04-10T21:59:06.069Z,27
2019-04-10T22:04:08.526Z,23
2019-04-10T22:09:10.988Z,22
2019-04-10T22:14:13.382Z,21
2019-04-10T22:19:16.710Z,19
2019-04-10T22:24:18.335Z,20
2019-04-10T22:29:21.749Z,20
2019-04-10T22:34:23.394Z,20
2019-04-10T22:39:25.672Z,23
2019-04-10T22:44:36.483Z,18
2019-04-10T22:49:30.812Z,21
2019-04-10T22:54:33.065Z,23
2019-04-10T22:59:35.484Z,19
2019-04-10T23:04:38.913Z,17
2019-04-10T23:09:40.609Z,15
2019-04-10T23:14:42.868Z,23
2019-04-10T23:19:45.387Z,23
2019-04-10T23:24:47.805Z,17
2019-04-10T23:29:50.627Z,20
2019-04-10T23:34:53.057Z,15
2019-04-10T23:39:55.174Z,20
2019-04-10T23:44:57.652Z,21
2019-04-10T23:50:00.114Z,19
2019-04-10T23:55:03.861Z,21
